createdAt,value
2022-10-13T00:04:33.996Z,33.83
2022-10-13T00:09:36.046Z,32.15
2022-10-13T00:14:37.887Z,32.35
2022-10-13T00:19:39.583Z,32.40
2022-10-13T00:24:42.741Z,33.72
2022-10-13T00:29:44.890Z,29.23
2022-10-13T00:34:46.574Z,32.00
2022-10-13T00:39:50.023Z,28.98
2022-10-13T00:45:15.979Z,31.58
2022-10-13T00:50:21.471Z,32.47
2022-10-13T00:55:34.367Z,27.23
2022-10-13T01:00:37.849Z,27.42
2022-10-13T01:05:42.052Z,32.08
2022-10-13T01:10:59.372Z,42.10
2022-10-13T01:16:28.070Z,35.28
2022-10-13T01:22:21.680Z,36.70
2022-10-13T01:27:48.199Z,35.25
2022-10-13T01:33:10.648Z,33.72
2022-10-13T01:38:27.000Z,31.10
2022-10-13T01:43:43.399Z,32.65
2022-10-13T01:49:05.440Z,38.35
2022-10-13T01:54:07.467Z,37.17
2022-10-13T01:59:12.869Z,36.20
2022-10-13T02:04:55.729Z,34.90
2022-10-13T02:10:09.268Z,31.50
2022-10-13T02:15:16.293Z,36.85
2022-10-13T02:20:20.577Z,32.22
2022-10-13T02:25:23.134Z,32.60
2022-10-13T02:30:28.806Z,32.65
2022-10-13T02:35:31.180Z,34.63
2022-10-13T02:40:35.630Z,32.55
2022-10-13T02:45:37.348Z,31.08
2022-10-13T02:50:39.562Z,32.90
2022-10-13T02:55:41.441Z,32.03
2022-10-13T03:00:43.311Z,31.48
2022-10-13T03:05:45.452Z,30.73
2022-10-13T03:10:47.222Z,30.85
2022-10-13T03:15:50.693Z,34.25
2022-10-13T03:21:04.361Z,35.70
2022-10-13T03:26:06.837Z,36.45
2022-10-13T03:31:11.002Z,37.28
2022-10-13T03:36:13.537Z,34.20
2022-10-13T03:41:19.461Z,34.40
2022-10-13T03:46:28.284Z,33.67
2022-10-13T03:51:32.078Z,34.22
2022-10-13T03:56:34.286Z,34.20
2022-10-13T04:01:36.264Z,33.55
2022-10-13T04:06:39.278Z,32.83
2022-10-13T04:11:41.071Z,30.05
2022-10-13T04:16:42.873Z,32.83
2022-10-13T04:21:44.763Z,37.45
2022-10-13T04:26:46.893Z,34.22
2022-10-13T04:31:48.722Z,29.88
2022-10-13T04:36:51.978Z,33.47
2022-10-13T04:41:55.526Z,31.38
2022-10-13T04:46:57.796Z,35.10
2022-10-13T04:51:59.669Z,41.15
2022-10-13T04:57:02.294Z,42.80
2022-10-13T05:02:05.868Z,65.88
2022-10-13T05:07:18.112Z,55.10
2022-10-13T05:12:22.690Z,50.10
2022-10-13T05:17:25.381Z,46.97
2022-10-13T05:22:28.245Z,48.97
2022-10-13T05:27:29.858Z,49.90
2022-10-13T05:32:31.445Z,45.95
2022-10-13T05:37:33.179Z,45.40
2022-10-13T05:42:36.025Z,52.83
2022-10-13T05:47:37.601Z,40.38
2022-10-13T05:52:39.638Z,43.28
2022-10-13T05:57:44.524Z,44.05
2022-10-13T06:03:14.993Z,41.95
2022-10-13T06:08:18.722Z,39.75
2022-10-13T06:13:20.840Z,35.83
2022-10-13T06:18:22.541Z,38.38
2022-10-13T06:23:24.405Z,37.83
2022-10-13T06:28:27.315Z,32.22
2022-10-13T06:33:29.154Z,34.45
2022-10-13T06:38:31.148Z,33.83
2022-10-13T06:43:39.950Z,34.63
2022-10-13T06:48:45.561Z,35.58
2022-10-13T06:53:47.637Z,32.78
2022-10-13T06:58:49.218Z,35.67
2022-10-13T07:03:52.144Z,33.90
2022-10-13T07:08:55.895Z,36.75
2022-10-13T07:13:57.581Z,35.63
2022-10-13T07:19:00.446Z,34.67
2022-10-13T07:24:04.116Z,40.50
2022-10-13T07:29:05.717Z,37.42
2022-10-13T07:34:08.469Z,38.10
2022-10-13T07:39:10.291Z,31.38
2022-10-13T07:44:11.928Z,38.45
2022-10-13T07:49:16.180Z,31.95
2022-10-13T07:54:22.541Z,33.90
2022-10-13T07:59:26.782Z,36.08
2022-10-13T08:04:32.610Z,37.10
2022-10-13T08:09:34.696Z,33.58
2022-10-13T08:14:36.585Z,34.88
2022-10-13T08:19:38.401Z,30.92
2022-10-13T08:24:40.219Z,32.97
2022-10-13T08:29:43.388Z,33.47
2022-10-13T08:34:45.986Z,30.70
2022-10-13T08:39:47.582Z,34.03
2022-10-13T08:50:23.925Z,31.30
2022-10-13T08:55:36.218Z,31.50
2022-10-13T09:00:38.892Z,31.45
2022-10-13T09:05:54.121Z,31.13
2022-10-13T09:10:55.721Z,25.77
2022-10-13T09:15:58.071Z,27.08
2022-10-13T09:21:20.544Z,30.38
2022-10-13T09:26:25.092Z,28.40
2022-10-13T09:31:28.940Z,24.27
2022-10-13T09:36:31.359Z,26.25
2022-10-13T09:41:34.027Z,28.52
2022-10-13T09:46:50.387Z,22.40
2022-10-13T09:52:01.437Z,23.35
2022-10-13T09:57:11.884Z,25.35
2022-10-13T10:02:43.686Z,22.80
2022-10-13T10:07:45.430Z,21.13
2022-10-13T10:12:47.354Z,19.38
2022-10-13T10:18:05.837Z,19.27
2022-10-13T10:28:44.020Z,15.15
2022-10-13T10:34:15.537Z,16.13
2022-10-13T10:39:29.546Z,16.45
2022-10-13T10:44:36.699Z,16.40
2022-10-13T10:49:39.556Z,16.92
2022-10-13T10:54:49.549Z,15.23
2022-10-13T11:00:05.922Z,17.70
2022-10-13T11:05:07.621Z,13.57
2022-10-13T11:10:18.464Z,14.93
2022-10-13T11:15:27.454Z,13.70
2022-10-13T11:20:35.462Z,13.98
2022-10-13T11:25:41.391Z,13.25
2022-10-13T11:30:50.595Z,12.48
2022-10-13T11:35:53.738Z,13.93
2022-10-13T11:41:18.733Z,15.90
2022-10-13T11:46:40.676Z,18.27
2022-10-13T11:52:01.067Z,17.70
2022-10-13T11:57:04.683Z,15.98
2022-10-13T12:02:13.982Z,18.00
2022-10-13T12:07:22.080Z,16.50
2022-10-13T12:12:24.980Z,16.58
2022-10-13T12:17:27.293Z,15.55
2022-10-13T12:22:29.469Z,21.67
2022-10-13T12:27:46.932Z,15.38
2022-10-13T12:32:51.484Z,15.35
2022-10-13T12:37:55.025Z,18.05
2022-10-13T12:42:57.040Z,17.45
2022-10-13T12:47:58.840Z,16.90
2022-10-13T12:53:26.564Z,16.15
2022-10-13T12:58:34.702Z,18.92
2022-10-13T13:03:37.684Z,16.58
2022-10-13T13:08:41.843Z,16.92
2022-10-13T13:13:43.614Z,13.57
2022-10-13T13:18:48.200Z,17.25
2022-10-13T13:23:53.754Z,17.05
2022-10-13T13:28:56.983Z,17.35
2022-10-13T13:33:58.725Z,16.83
2022-10-13T13:39:00.546Z,15.10
2022-10-13T13:44:02.256Z,13.43
2022-10-13T13:49:04.057Z,18.40
2022-10-13T13:54:06.440Z,18.33
2022-10-13T13:59:08.120Z,16.30
2022-10-13T14:04:10.235Z,13.38
2022-10-13T14:09:12.905Z,15.73
2022-10-13T14:14:15.963Z,13.93
2022-10-13T14:19:17.681Z,14.80
2022-10-13T14:24:20.299Z,13.73
2022-10-13T14:29:22.754Z,17.60
2022-10-13T14:34:24.548Z,14.73
2022-10-13T14:39:26.182Z,12.88
2022-10-13T14:44:27.917Z,14.65
2022-10-13T14:49:29.563Z,12.60
2022-10-13T14:54:31.557Z,13.57
2022-10-13T14:59:33.303Z,16.88
2022-10-13T15:04:35.023Z,13.80
2022-10-13T15:09:52.254Z,14.27
2022-10-13T15:14:54.166Z,12.03
2022-10-13T15:19:55.774Z,10.88
2022-10-13T15:24:58.654Z,9.80
2022-10-13T15:30:01.760Z,13.35
2022-10-13T15:35:03.584Z,13.63
2022-10-13T15:40:09.470Z,10.60
2022-10-13T15:45:11.808Z,9.63
2022-10-13T15:50:15.016Z,8.75
2022-10-13T15:55:16.647Z,14.15
2022-10-13T16:00:18.338Z,9.10
2022-10-13T16:05:20.296Z,9.90
2022-10-13T16:10:22.361Z,10.95
2022-10-13T16:15:23.930Z,12.50
2022-10-13T16:20:26.406Z,11.57
2022-10-13T16:25:29.381Z,11.35
2022-10-13T16:30:31.023Z,16.42
2022-10-13T16:35:34.349Z,9.70
2022-10-13T16:40:39.847Z,10.43
2022-10-13T16:45:59.200Z,11.55
2022-10-13T16:51:06.861Z,12.27
2022-10-13T16:56:09.100Z,11.27
2022-10-13T17:01:12.090Z,11.48
2022-10-13T17:06:15.248Z,12.13
2022-10-13T17:11:19.669Z,9.70
2022-10-13T17:16:21.983Z,10.98
2022-10-13T17:21:23.594Z,14.38
2022-10-13T17:26:25.297Z,19.17
2022-10-13T17:31:27.118Z,20.60
2022-10-13T17:36:31.957Z,13.43
2022-10-13T17:41:37.443Z,11.02
2022-10-13T17:46:40.062Z,10.25
2022-10-13T17:51:43.343Z,11.07
2022-10-13T17:56:50.292Z,13.23
2022-10-13T18:01:51.976Z,15.75
2022-10-13T18:06:53.779Z,16.23
2022-10-13T18:11:56.338Z,13.88
2022-10-13T18:16:58.118Z,12.95
2022-10-13T18:21:59.728Z,11.10
2022-10-13T18:27:01.810Z,16.15
2022-10-13T18:32:04.960Z,17.67
2022-10-13T18:37:06.617Z,13.18
2022-10-13T18:42:08.500Z,13.30
2022-10-13T18:47:10.873Z,20.55
2022-10-13T18:52:12.941Z,17.98
2022-10-13T18:57:14.555Z,12.43
2022-10-13T19:02:16.345Z,19.10
2022-10-13T19:07:18.293Z,17.40
2022-10-13T19:12:20.347Z,14.88
2022-10-13T19:17:22.327Z,19.48
2022-10-13T19:22:24.370Z,20.77
2022-10-13T19:27:26.892Z,18.02
2022-10-13T19:32:28.698Z,16.45
2022-10-13T19:37:32.492Z,16.58
2022-10-13T19:42:35.355Z,15.10
2022-10-13T19:47:39.148Z,14.98
2022-10-13T19:52:42.349Z,14.70
2022-10-13T19:57:44.033Z,14.80
2022-10-13T20:02:46.178Z,15.68
2022-10-13T20:07:48.278Z,16.05
2022-10-13T20:12:50.029Z,29.30
2022-10-13T20:17:51.723Z,28.40
2022-10-13T20:22:54.032Z,23.58
2022-10-13T20:27:57.011Z,17.15
2022-10-13T20:32:59.061Z,14.57
2022-10-13T20:38:00.808Z,13.95
2022-10-13T20:43:02.374Z,25.98
2022-10-13T20:48:03.968Z,28.60
2022-10-13T20:53:05.743Z,32.13
2022-10-13T20:58:07.344Z,26.05
2022-10-13T21:03:08.957Z,24.35
2022-10-13T21:08:11.430Z,25.05
2022-10-13T21:13:14.502Z,16.33
2022-10-13T21:18:16.282Z,19.60
2022-10-13T21:23:17.946Z,25.40
2022-10-13T21:28:19.556Z,14.93
2022-10-13T21:33:22.067Z,15.63
2022-10-13T21:38:24.333Z,17.05
2022-10-13T21:43:25.970Z,17.77
2022-10-13T21:48:27.557Z,16.88
2022-10-13T21:53:29.209Z,18.73
2022-10-13T21:58:30.989Z,21.48
2022-10-13T22:03:33.188Z,16.20
2022-10-13T22:08:39.609Z,22.52
2022-10-13T22:13:48.870Z,21.00
2022-10-13T22:18:55.190Z,20.38
2022-10-13T22:23:58.508Z,24.38
2022-10-13T22:29:01.948Z,21.35
2022-10-13T22:34:04.452Z,19.10
2022-10-13T22:39:06.191Z,13.88
2022-10-13T22:44:08.650Z,15.68
2022-10-13T22:49:11.335Z,16.50
2022-10-13T22:54:13.046Z,18.27
2022-10-13T22:59:14.839Z,14.60
2022-10-13T23:04:17.242Z,20.48
2022-10-13T23:09:19.151Z,21.13
2022-10-13T23:14:20.875Z,18.42
2022-10-13T23:19:22.636Z,13.25
2022-10-13T23:24:24.219Z,12.88
2022-10-13T23:29:26.570Z,14.30
2022-10-13T23:34:29.268Z,13.02
2022-10-13T23:39:31.205Z,12.77
2022-10-13T23:44:32.830Z,13.60
2022-10-13T23:49:34.494Z,13.63
2022-10-13T23:54:36.140Z,13.40
2022-10-13T23:59:38.877Z,15.60
